Time;durP1;ratioP1;P1;durP2;ratioP2;P2;SDS_P1;SDS_P2;PMS_P1;PMS_P2;Temp;Humidity;BMP_temperature;BMP_pressure;BME280_temperature;BME280_humidity;BME280_pressure;Samples;Min_cycle;Max_cycle;Signal;HPM_P1;HPM_P2
2023/08/20 00:00:18;;;;;;;30.27;17.98;;;;;;;18.70;100.00;102014.06;5028776;28;20029;-74
2023/08/20 00:02:46;;;;;;;22.60;15.52;;;;;;;18.64;100.00;102012.66;5028582;28;20037;-73
2023/08/20 00:05:13;;;;;;;21.77;15.30;;;;;;;18.55;100.00;102006.13;5023877;28;20033;-74
2023/08/20 00:07:39;;;;;;;30.58;15.40;;;;;;;18.57;100.00;102001.47;5028073;28;20030;-75
2023/08/20 00:10:05;;;;;;;19.85;16.17;;;;;;;18.58;100.00;102013.16;5023675;28;20096;-74
2023/08/20 00:12:31;;;;;;;16.65;13.27;;;;;;;18.52;100.00;101998.25;5028947;28;20107;-74
2023/08/20 00:15:07;;;;;;;26.42;14.68;;;;;;;18.47;100.00;101997.75;5026258;28;20753;-74
2023/08/20 00:17:34;;;;;;;18.17;14.57;;;;;;;18.48;100.00;101996.81;5021644;28;20101;-74
2023/08/20 00:20:01;;;;;;;23.05;14.07;;;;;;;18.47;100.00;102007.72;5032371;28;20132;-74
2023/08/20 00:22:27;;;;;;;21.98;14.68;;;;;;;18.52;100.00;102006.38;5025881;28;20025;-74
2023/08/20 00:24:54;;;;;;;19.38;14.93;;;;;;;18.55;100.00;102008.84;5031344;28;20037;-75
2023/08/20 00:27:20;;;;;;;22.48;14.13;;;;;;;18.45;100.00;102017.78;5029439;28;21087;-73
2023/08/20 00:29:45;;;;;;;22.08;15.90;;;;;;;18.45;100.00;102015.94;5028911;28;20083;-73
2023/08/20 00:32:12;;;;;;;20.27;14.85;;;;;;;18.48;100.00;102014.88;5018498;28;20061;-74
2023/08/20 00:34:37;;;;;;;17.65;15.07;;;;;;;18.63;100.00;102013.66;5030366;28;20048;-74
2023/08/20 00:37:03;;;;;;;15.45;12.63;;;;;;;18.66;100.00;102021.50;5019412;28;20904;-73
2023/08/20 00:39:29;;;;;;;15.00;11.85;;;;;;;18.85;100.00;102026.34;5057399;28;20817;-74
2023/08/20 00:41:55;;;;;;;22.52;16.50;;;;;;;18.89;100.00;102020.59;5029439;28;20054;-75
2023/08/20 00:44:21;;;;;;;28.33;16.60;;;;;;;18.47;100.00;102011.28;5028130;28;20034;-73
2023/08/20 00:46:47;;;;;;;26.77;19.00;;;;;;;18.43;100.00;102022.47;5030696;28;20041;-74
2023/08/20 00:49:13;;;;;;;30.38;18.75;;;;;;;18.45;100.00;102017.78;5063135;28;20118;-74
2023/08/20 00:51:39;;;;;;;35.67;18.63;;;;;;;18.59;100.00;102012.16;5029838;28;20026;-74
2023/08/20 00:54:06;;;;;;;26.20;18.88;;;;;;;18.65;100.00;102008.97;5060959;28;20064;-75
2023/08/20 00:56:32;;;;;;;24.88;18.58;;;;;;;18.66;100.00;102008.00;5028827;28;20038;-74
2023/08/20 00:58:58;;;;;;;40.58;22.17;;;;;;;18.74;100.00;102013.69;5057514;28;20033;-74
2023/08/20 01:01:24;;;;;;;26.30;20.00;;;;;;;18.74;100.00;102010.13;5027993;28;20852;-74
2023/08/20 01:03:52;;;;;;;32.33;19.02;;;;;;;18.73;100.00;102011.97;5024515;28;20227;-73
2023/08/20 01:06:36;;;;;;;29.73;19.73;;;;;;;18.67;100.00;102019.66;5029894;28;20044;-74
2023/08/20 01:09:11;;;;;;;30.88;19.73;;;;;;;18.66;100.00;102013.41;5045614;28;20049;-74
2023/08/20 01:11:45;;;;;;;33.05;20.42;;;;;;;18.58;100.00;102014.03;5012858;28;20801;-74
2023/08/20 01:14:16;;;;;;;26.38;17.00;;;;;;;18.59;100.00;102010.31;5026590;28;20463;-75
2023/08/20 01:16:42;;;;;;;27.63;17.77;;;;;;;18.57;100.00;102009.56;5029945;28;21102;-74
2023/08/20 01:19:13;;;;;;;27.38;17.75;;;;;;;18.42;100.00;102012.63;5062284;28;20052;-74
2023/08/20 01:22:01;;;;;;;23.20;18.33;;;;;;;18.44;100.00;102021.47;5029009;28;20081;-74
2023/08/20 01:24:48;;;;;;;24.52;17.10;;;;;;;18.47;100.00;102032.88;5042012;28;20057;-74
2023/08/20 01:27:44;;;;;;;22.25;16.52;;;;;;;18.48;100.00;102033.78;5029496;28;20049;-73
2023/08/20 01:30:11;;;;;;;27.10;16.30;;;;;;;18.49;100.00;102038.19;5023789;28;20056;-74
2023/08/20 01:32:41;;;;;;;26.52;16.45;;;;;;;18.44;100.00;102034.97;5062130;28;20026;-73
2023/08/20 01:35:16;;;;;;;24.30;16.08;;;;;;;18.48;100.00;102042.72;5032436;28;20142;-74
2023/08/20 01:37:42;;;;;;;22.52;16.48;;;;;;;18.58;100.00;102043.75;5026550;28;20871;-73
2023/08/20 01:40:12;;;;;;;20.58;17.48;;;;;;;18.64;100.00;102047.78;5032155;28;20029;-73
2023/08/20 01:42:39;;;;;;;26.27;17.65;;;;;;;18.74;100.00;102040.72;5027616;28;20040;-74
2023/08/20 01:45:05;;;;;;;25.63;17.52;;;;;;;18.86;100.00;102044.28;5032678;28;20045;-74
2023/08/20 01:47:31;;;;;;;29.17;17.52;;;;;;;18.93;100.00;102047.38;5026881;28;20117;-74
2023/08/20 01:49:59;;;;;;;29.88;17.88;;;;;;;19.00;100.00;102048.59;5032525;28;20037;-73
2023/08/20 01:52:25;;;;;;;27.08;17.50;;;;;;;19.06;100.00;102050.81;5025657;28;20062;-74
2023/08/20 01:54:51;;;;;;;23.63;16.85;;;;;;;19.11;100.00;102067.53;5031490;28;20391;-73
2023/08/20 01:57:16;;;;;;;19.98;15.75;;;;;;;19.13;100.00;102065.59;5033594;28;20041;-74
2023/08/20 01:59:42;;;;;;;24.05;16.58;;;;;;;19.24;100.00;102073.69;5031438;28;20039;-74
2023/08/20 02:02:09;;;;;;;26.98;16.30;;;;;;;19.14;100.00;102081.66;5031903;28;20037;-74
2023/08/20 02:04:35;;;;;;;23.48;17.48;;;;;;;19.18;100.00;102074.19;5026152;28;20046;-74
2023/08/20 02:07:00;;;;;;;26.80;16.60;;;;;;;19.30;100.00;102070.47;5027378;28;20049;-74
2023/08/20 02:09:27;;;;;;;26.45;17.27;;;;;;;19.32;100.00;102076.59;5027614;28;20054;-74
2023/08/20 02:11:52;;;;;;;24.20;15.55;;;;;;;19.36;100.00;102077.22;5027470;28;21002;-74
2023/08/20 02:14:18;;;;;;;27.25;16.83;;;;;;;19.06;100.00;102076.00;5064837;28;20148;-73
2023/08/20 02:16:46;;;;;;;25.55;16.52;;;;;;;18.72;100.00;102075.09;5018985;28;20105;-74
2023/08/20 02:19:11;;;;;;;25.33;16.95;;;;;;;18.79;100.00;102070.94;5034419;28;20033;-74
2023/08/20 02:21:37;;;;;;;24.52;16.27;;;;;;;18.73;100.00;102071.44;5030052;28;20824;-74
2023/08/20 02:24:03;;;;;;;27.73;16.52;;;;;;;18.93;100.00;102075.28;5027749;28;20385;-74
2023/08/20 02:26:29;;;;;;;23.52;16.73;;;;;;;18.90;100.00;102070.09;5036011;28;20128;-74
2023/08/20 02:28:54;;;;;;;27.60;17.45;;;;;;;18.86;100.00;102066.75;5039633;28;20030;-73
2023/08/20 02:31:20;;;;;;;25.35;15.32;;;;;;;18.95;100.00;102073.28;5035454;28;20053;-74
2023/08/20 02:33:47;;;;;;;36.75;17.55;;;;;;;19.01;100.00;102074.66;5034042;28;20085;-74
2023/08/20 02:36:12;;;;;;;26.02;16.35;;;;;;;19.07;100.00;102076.84;5029971;28;20308;-74
2023/08/20 02:38:38;;;;;;;25.15;16.10;;;;;;;19.06;100.00;102072.44;5025585;28;20108;-74
2023/08/20 02:41:03;;;;;;;22.70;14.75;;;;;;;19.14;100.00;102078.97;5029632;28;20510;-73
2023/08/20 02:43:29;;;;;;;24.85;15.30;;;;;;;19.07;100.00;102075.00;5031042;28;20766;-73
2023/08/20 02:45:55;;;;;;;23.27;15.50;;;;;;;19.05;100.00;102070.72;5029993;28;20038;-73
2023/08/20 02:48:21;;;;;;;24.35;15.30;;;;;;;18.96;100.00;102066.03;5029072;28;20043;-72
2023/08/20 02:50:46;;;;;;;26.55;15.68;;;;;;;18.91;100.00;102071.81;5031954;28;20041;-74
2023/08/20 02:53:12;;;;;;;24.85;14.43;;;;;;;18.80;100.00;102074.50;5032021;28;20558;-74
2023/08/20 02:55:37;;;;;;;30.77;15.80;;;;;;;18.76;100.00;102081.97;5064102;28;20091;-74
2023/08/20 02:58:03;;;;;;;25.90;15.38;;;;;;;18.70;100.00;102081.63;5034476;28;20045;-74
2023/08/20 03:00:30;;;;;;;22.52;15.38;;;;;;;18.59;100.00;102079.72;5067192;28;20040;-73
2023/08/20 03:02:56;;;;;;;20.75;14.15;;;;;;;18.56;100.00;102074.53;5034349;28;20065;-74
2023/08/20 03:05:22;;;;;;;29.52;14.20;;;;;;;18.57;100.00;102076.25;5065645;28;20036;-74
2023/08/20 03:07:48;;;;;;;24.83;15.13;;;;;;;18.60;100.00;102076.88;5027559;28;20080;-74
2023/08/20 03:10:13;;;;;;;20.95;14.93;;;;;;;18.62;100.00;102080.34;5029558;28;20492;-73
2023/08/20 03:12:39;;;;;;;20.55;14.30;;;;;;;18.58;100.00;102078.84;5028314;28;20037;-73
2023/08/20 03:15:06;;;;;;;20.60;13.93;;;;;;;18.51;100.00;102072.19;5026678;28;20737;-73
2023/08/20 03:17:32;;;;;;;20.67;14.75;;;;;;;18.52;100.00;102073.91;5027787;28;20033;-74
2023/08/20 03:19:59;;;;;;;23.67;13.95;;;;;;;18.53;100.00;102072.09;5028858;28;20037;-74
2023/08/20 03:22:26;;;;;;;22.05;15.00;;;;;;;18.33;100.00;102070.94;5028583;28;20033;-73
2023/08/20 03:24:52;;;;;;;25.17;15.10;;;;;;;18.37;100.00;102069.69;5027888;28;20046;-74
2023/08/20 03:27:19;;;;;;;20.73;12.77;;;;;;;18.36;100.00;102065.28;5058175;28;20037;-74
2023/08/20 03:29:45;;;;;;;18.33;11.20;;;;;;;18.25;100.00;102060.69;5026663;28;20040;-72
2023/08/20 03:32:11;;;;;;;17.00;12.48;;;;;;;18.11;100.00;102050.06;5010892;28;20151;-74
2023/08/20 03:34:37;;;;;;;17.65;12.25;;;;;;;18.10;100.00;102051.91;5034230;28;20038;-74
2023/08/20 03:37:03;;;;;;;17.15;11.25;;;;;;;18.02;100.00;102057.06;5022736;28;20022;-74
2023/08/20 03:39:30;;;;;;;18.10;14.98;;;;;;;18.02;100.00;102058.88;5028474;28;20033;-74
2023/08/20 03:41:57;;;;;;;18.65;12.05;;;;;;;17.84;100.00;102053.03;5024723;28;20037;-73
2023/08/20 03:44:23;;;;;;;34.22;12.40;;;;;;;17.91;100.00;102050.72;5058304;28;20080;-73
2023/08/20 03:46:48;;;;;;;19.30;13.85;;;;;;;17.80;100.00;102054.22;5010959;28;20061;-74
2023/08/20 03:49:15;;;;;;;17.77;12.40;;;;;;;17.84;100.00;102053.88;5024327;28;20041;-73
2023/08/20 03:51:42;;;;;;;17.05;12.57;;;;;;;17.79;100.00;102057.91;5058469;28;20042;-74
2023/08/20 03:54:10;;;;;;;24.83;15.40;;;;;;;17.84;100.00;102061.13;5015809;28;20040;-74
2023/08/20 03:56:36;;;;;;;18.58;13.02;;;;;;;17.85;100.00;102060.16;5040025;28;20232;-73
2023/08/20 03:59:02;;;;;;;17.15;12.40;;;;;;;17.82;100.00;102066.66;5024733;28;20084;-74
2023/08/20 04:01:29;;;;;;;19.25;14.07;;;;;;;17.85;100.00;102070.94;5057739;28;20034;-73
2023/08/20 04:03:54;;;;;;;17.92;13.25;;;;;;;17.75;100.00;102068.06;5024812;28;20108;-73
2023/08/20 04:06:20;;;;;;;18.58;12.90;;;;;;;17.66;100.00;102057.91;5028661;28;20037;-74
2023/08/20 04:08:45;;;;;;;16.50;13.18;;;;;;;17.65;100.00;102076.91;5026101;28;20041;-74
2023/08/20 04:11:11;;;;;;;18.13;12.75;;;;;;;17.68;100.00;102082.09;5060292;28;20030;-74
2023/08/20 04:13:39;;;;;;;20.40;12.02;;;;;;;17.67;100.00;102078.53;5026597;28;20761;-73
2023/08/20 04:16:05;;;;;;;16.02;13.98;;;;;;;17.63;100.00;102082.44;5026981;28;20075;-74
2023/08/20 04:18:31;;;;;;;19.73;12.45;;;;;;;17.64;100.00;102083.28;5027656;28;20048;-74
2023/08/20 04:20:57;;;;;;;9.98;9.07;;;;;;;17.47;100.00;102090.78;5024508;28;20158;-73
2023/08/20 04:23:23;;;;;;;14.15;10.75;;;;;;;17.52;100.00;102088.63;5038472;28;20058;-74
2023/08/20 04:25:49;;;;;;;15.27;10.35;;;;;;;17.49;100.00;102091.53;5057793;28;20444;-74
2023/08/20 04:28:15;;;;;;;9.18;8.02;;;;;;;17.51;100.00;102080.63;5024349;28;20034;-75
2023/08/20 04:30:41;;;;;;;10.88;7.07;;;;;;;17.45;100.00;102094.56;5026550;28;20041;-74
2023/08/20 04:33:06;;;;;;;7.90;6.28;;;;;;;17.42;100.00;102098.34;5020590;28;20037;-73
2023/08/20 04:35:33;;;;;;;13.70;10.95;;;;;;;17.51;100.00;102092.25;5025085;28;20037;-74
2023/08/20 04:37:59;;;;;;;16.85;11.73;;;;;;;17.61;100.00;102084.38;5031083;28;20041;-73
2023/08/20 04:40:25;;;;;;;17.88;10.60;;;;;;;17.61;100.00;102085.22;5058604;28;20046;-73
2023/08/20 04:42:51;;;;;;;11.70;10.15;;;;;;;17.60;100.00;102079.94;5029402;28;20033;-74
2023/08/20 04:45:19;;;;;;;13.07;9.48;;;;;;;17.60;100.00;102083.50;5023280;28;20116;-74
2023/08/20 04:47:46;;;;;;;12.05;8.90;;;;;;;17.69;100.00;102092.78;5023979;28;20038;-73
2023/08/20 04:50:13;;;;;;;11.02;8.93;;;;;;;17.73;100.00;102094.31;5028196;28;20034;-73
2023/08/20 04:52:38;;;;;;;7.80;5.57;;;;;;;17.70;100.00;102102.56;5030451;28;20126;-74
2023/08/20 04:55:06;;;;;;;8.75;6.32;;;;;;;17.80;100.00;102102.81;5045114;28;20030;-73
2023/08/20 04:57:32;;;;;;;16.33;7.63;;;;;;;17.78;100.00;102096.66;5030340;28;20236;-74
2023/08/20 04:59:58;;;;;;;17.27;10.35;;;;;;;17.84;100.00;102105.16;5027417;28;20141;-74
2023/08/20 05:02:36;;;;;;;16.60;12.25;;;;;;;17.93;100.00;102095.53;5059729;28;20076;-73
2023/08/20 05:05:03;;;;;;;10.20;8.90;;;;;;;17.94;100.00;102102.66;5058995;28;20037;-74
2023/08/20 05:07:28;;;;;;;14.18;10.65;;;;;;;17.95;100.00;102103.50;5030995;28;20037;-74
2023/08/20 05:09:54;;;;;;;14.10;12.00;;;;;;;17.97;100.00;102105.13;5029549;28;20676;-73
2023/08/20 05:12:19;;;;;;;16.08;12.25;;;;;;;18.04;100.00;102102.81;5029519;28;20059;-74
2023/08/20 05:14:45;;;;;;;13.63;12.27;;;;;;;18.08;100.00;102097.09;5041581;28;20041;-74
2023/08/20 05:17:11;;;;;;;13.90;12.27;;;;;;;18.22;100.00;102098.72;5025978;28;20034;-74
2023/08/20 05:19:37;;;;;;;17.02;11.88;;;;;;;18.28;100.00;102108.22;5028755;28;20025;-74
2023/08/20 05:22:02;;;;;;;20.38;12.98;;;;;;;18.35;100.00;102106.75;5063679;28;20037;-74
2023/08/20 05:24:31;;;;;;;16.50;13.38;;;;;;;18.44;100.00;102107.91;5047718;28;20124;-74
2023/08/20 05:27:07;;;;;;;13.77;11.52;;;;;;;18.49;100.00;102106.56;5040785;28;20044;-74
2023/08/20 05:29:33;;;;;;;15.93;13.18;;;;;;;18.59;100.00;102104.88;5043745;28;20092;-73
2023/08/20 05:31:59;;;;;;;13.82;12.25;;;;;;;18.67;100.00;102114.22;5045961;28;20037;-74
2023/08/20 05:34:25;;;;;;;15.25;11.50;;;;;;;18.72;100.00;102118.31;5018256;28;20040;-74
2023/08/20 05:36:50;;;;;;;16.77;12.93;;;;;;;18.62;100.00;102118.19;5033077;28;20910;-73
2023/08/20 05:39:16;;;;;;;21.83;15.68;;;;;;;18.75;100.00;102125.34;5031526;28;20058;-74
2023/08/20 05:41:41;;;;;;;14.40;11.85;;;;;;;18.78;100.00;102131.41;5033836;28;20718;-74
2023/08/20 05:44:07;;;;;;;22.20;15.70;;;;;;;18.94;100.00;102131.06;5030730;28;20123;-74
2023/08/20 05:46:32;;;;;;;25.48;16.77;;;;;;;19.00;100.00;102130.56;5031440;28;20948;-74
2023/08/20 05:48:58;;;;;;;20.08;15.10;;;;;;;18.94;100.00;102133.75;5063006;28;20029;-73
2023/08/20 05:51:26;;;;;;;22.58;17.10;;;;;;;19.12;100.00;102129.59;5046478;28;20041;-74
2023/08/20 05:53:51;;;;;;;25.88;18.05;;;;;;;19.31;100.00;102129.00;5030290;28;20037;-73
2023/08/20 05:56:18;;;;;;;29.08;18.08;;;;;;;19.44;100.00;102131.59;5063829;28;20633;-73
2023/08/20 05:58:44;;;;;;;28.23;19.60;;;;;;;19.43;100.00;102135.28;5031582;28;20030;-73
2023/08/20 06:01:09;;;;;;;25.75;18.83;;;;;;;19.60;100.00;102132.09;5038802;28;20435;-74
2023/08/20 06:03:35;;;;;;;24.60;18.65;;;;;;;19.69;100.00;102127.81;5062656;28;20037;-73
2023/08/20 06:06:00;;;;;;;24.58;17.63;;;;;;;19.79;100.00;102131.47;5031385;28;20045;-74
2023/08/20 06:08:26;;;;;;;22.92;16.42;;;;;;;19.98;100.00;102133.53;5030015;28;20092;-73
2023/08/20 06:10:52;;;;;;;26.60;17.77;;;;;;;20.08;100.00;102120.94;5025441;28;20796;-73
2023/08/20 06:13:18;;;;;;;23.63;16.38;;;;;;;20.24;100.00;102135.91;5047119;28;20036;-73
2023/08/20 06:15:43;;;;;;;25.27;17.75;;;;;;;20.33;100.00;102136.00;5064738;28;20621;-74
2023/08/20 06:18:09;;;;;;;23.58;16.27;;;;;;;20.51;100.00;102128.19;5041838;28;20034;-73
2023/08/20 06:20:34;;;;;;;19.67;14.23;;;;;;;20.60;100.00;102127.41;5035263;28;20044;-74
2023/08/20 06:23:00;;;;;;;23.10;15.27;;;;;;;20.74;100.00;102119.97;5032576;28;20127;-75
2023/08/20 06:25:26;;;;;;;20.70;13.52;;;;;;;20.91;100.00;102122.91;5026582;28;20080;-73
2023/08/20 06:27:51;;;;;;;18.20;12.20;;;;;;;21.06;100.00;102118.00;5027733;28;20045;-74
2023/08/20 06:30:17;;;;;;;25.20;11.75;;;;;;;21.15;100.00;102110.91;5056186;28;20110;-73
2023/08/20 06:32:44;;;;;;;16.88;10.45;;;;;;;21.55;100.00;102120.97;5028924;28;20036;-73
2023/08/20 06:35:10;;;;;;;17.45;9.80;;;;;;;21.72;100.00;102112.16;5026253;28;20025;-73
2023/08/20 06:37:38;;;;;;;19.35;9.10;;;;;;;21.83;100.00;102114.75;5028167;28;20030;-74
2023/08/20 06:40:05;;;;;;;14.93;8.00;;;;;;;21.94;100.00;102106.50;5030229;28;20046;-74
2023/08/20 06:42:30;;;;;;;15.57;8.10;;;;;;;22.12;100.00;102108.56;5028994;28;20097;-74
2023/08/20 06:44:56;;;;;;;17.02;7.70;;;;;;;22.34;100.00;102113.72;5029133;28;20048;-74
2023/08/20 06:47:21;;;;;;;13.15;7.32;;;;;;;22.58;100.00;102107.84;5034498;28;20038;-73
2023/08/20 06:49:47;;;;;;;14.82;6.10;;;;;;;22.70;100.00;102109.41;5030090;28;20558;-75
2023/08/20 06:52:12;;;;;;;14.70;6.38;;;;;;;22.84;100.00;102110.81;5032103;28;20025;-74
2023/08/20 06:54:38;;;;;;;17.08;6.63;;;;;;;23.04;100.00;102118.94;5031309;28;20033;-74
2023/08/20 06:57:04;;;;;;;11.05;5.22;;;;;;;23.23;100.00;102110.72;5028009;28;20040;-73
2023/08/20 06:59:29;;;;;;;14.23;5.50;;;;;;;23.28;100.00;102105.69;5026134;28;20034;-74
2023/08/20 07:01:55;;;;;;;12.82;5.47;;;;;;;23.30;100.00;102120.03;5031113;28;20542;-73
2023/08/20 07:04:20;;;;;;;13.40;5.07;;;;;;;23.51;99.71;102111.63;5045079;28;20244;-74
2023/08/20 07:06:46;;;;;;;12.57;4.55;;;;;;;23.39;95.32;102113.66;5035328;28;20445;-75
2023/08/20 07:09:11;;;;;;;11.65;4.38;;;;;;;23.41;95.31;102114.38;5030794;28;20044;-74
2023/08/20 07:11:37;;;;;;;17.08;4.70;;;;;;;23.33;94.67;102117.00;5025460;28;20581;-74
2023/08/20 07:14:03;;;;;;;13.93;4.60;;;;;;;23.41;95.27;102111.66;5033126;28;20562;-73
2023/08/20 07:16:28;;;;;;;11.60;5.25;;;;;;;23.61;95.22;102117.88;5042350;28;20047;-74
2023/08/20 07:18:54;;;;;;;12.40;4.15;;;;;;;23.62;92.10;102116.84;5053609;28;20033;-73
2023/08/20 07:21:19;;;;;;;11.70;4.20;;;;;;;23.69;90.58;102119.84;5040484;28;20812;-74
2023/08/20 07:23:45;;;;;;;14.82;4.22;;;;;;;23.57;88.47;102116.44;5055461;28;20053;-74
2023/08/20 07:26:15;;;;;;;12.18;3.40;;;;;;;23.58;89.88;102115.44;5045134;28;20050;-74
2023/08/20 07:31:32;;;;;;;13.57;3.70;;;;;;;23.99;87.85;102116.78;5050372;28;20038;-74
2023/08/20 07:33:59;;;;;;;14.05;4.15;;;;;;;24.10;87.63;102113.03;5047003;28;20033;-74
2023/08/20 07:36:26;;;;;;;12.43;4.10;;;;;;;23.99;86.46;102113.22;5050546;28;20040;-73
2023/08/20 07:38:53;;;;;;;11.73;3.63;;;;;;;24.22;85.95;102119.09;5040465;28;20038;-74
2023/08/20 07:41:19;;;;;;;13.93;4.03;;;;;;;24.39;84.29;102122.84;5034735;28;20104;-74
2023/08/20 07:43:46;;;;;;;13.52;4.15;;;;;;;24.57;88.31;102118.25;5038037;28;20041;-74
2023/08/20 07:46:12;;;;;;;15.65;3.55;;;;;;;24.45;83.08;102111.31;5032117;28;20041;-74
2023/08/20 07:48:37;;;;;;;13.07;3.35;;;;;;;24.45;81.50;102114.91;5035488;28;20048;-73
2023/08/20 07:51:03;;;;;;;13.25;3.75;;;;;;;24.82;83.22;102107.53;5034573;28;20060;-73
2023/08/20 07:53:29;;;;;;;12.77;3.40;;;;;;;24.99;82.12;102110.19;5038303;28;20038;-74
2023/08/20 07:55:55;;;;;;;11.05;3.25;;;;;;;24.96;77.39;102110.53;5038374;28;20034;-74
2023/08/20 07:58:21;;;;;;;11.18;2.78;;;;;;;25.09;77.19;102115.56;5032499;28;20112;-73
2023/08/20 08:00:47;;;;;;;12.65;3.50;;;;;;;25.29;78.61;102111.59;5024519;28;20041;-74
2023/08/20 08:03:14;;;;;;;13.18;3.25;;;;;;;25.53;75.15;102119.06;5032096;28;20775;-74
2023/08/20 08:05:40;;;;;;;8.73;3.00;;;;;;;25.65;75.25;102116.03;5030261;28;20046;-74
2023/08/20 08:08:06;;;;;;;9.98;2.90;;;;;;;25.79;76.26;102112.69;5029079;28;20038;-74
2023/08/20 08:10:32;;;;;;;14.15;3.00;;;;;;;25.98;74.59;102117.03;5034288;28;20046;-74
2023/08/20 08:12:57;;;;;;;12.57;3.00;;;;;;;25.95;75.41;102122.81;5022160;28;20521;-74
2023/08/20 08:15:23;;;;;;;5.65;2.28;;;;;;;25.73;72.35;102121.53;5030863;28;20698;-73
2023/08/20 08:17:48;;;;;;;11.35;3.20;;;;;;;25.64;72.92;102130.72;5034514;28;20482;-73
2023/08/20 08:20:14;;;;;;;7.85;2.97;;;;;;;25.64;72.98;102131.56;5039977;28;20103;-73
2023/08/20 08:22:40;;;;;;;8.27;3.05;;;;;;;25.51;73.42;102125.72;5030779;28;20041;-74
2023/08/20 08:25:05;;;;;;;7.43;2.60;;;;;;;25.73;73.52;102125.09;5031081;28;20037;-73
2023/08/20 08:27:31;;;;;;;8.65;2.97;;;;;;;25.76;72.88;102132.16;5032772;28;20154;-75
2023/08/20 08:29:57;;;;;;;9.02;2.88;;;;;;;25.76;72.15;102132.16;5023713;28;20030;-74
2023/08/20 08:32:23;;;;;;;10.07;2.92;;;;;;;25.48;71.55;102134.22;5031497;28;20190;-73
2023/08/20 08:34:49;;;;;;;6.05;2.45;;;;;;;25.73;72.64;102140.66;5031375;28;20136;-73
2023/08/20 08:37:15;;;;;;;10.27;2.40;;;;;;;25.90;75.68;102136.97;5026416;28;20065;-73
2023/08/20 08:39:41;;;;;;;5.80;2.00;;;;;;;26.15;74.75;102139.78;5013362;28;20038;-74
2023/08/20 08:42:10;;;;;;;14.18;2.47;;;;;;;26.11;71.59;102139.28;5034263;28;20040;-75
2023/08/20 08:44:36;;;;;;;7.88;3.00;;;;;;;26.02;69.45;102140.28;5025179;28;20048;-74
2023/08/20 08:47:03;;;;;;;4.38;1.80;;;;;;;25.83;70.59;102149.59;5027750;28;20037;-74
2023/08/20 08:49:30;;;;;;;5.75;2.30;;;;;;;25.86;70.59;102149.28;5029421;28;20037;-73
2023/08/20 08:51:59;;;;;;;7.90;2.25;;;;;;;26.02;72.00;102156.69;5035147;28;20029;-74
2023/08/20 08:54:26;;;;;;;10.90;2.80;;;;;;;26.15;73.06;102159.78;5023661;28;20025;-73
2023/08/20 08:56:52;;;;;;;10.75;2.85;;;;;;;26.02;70.73;102156.69;5036479;28;20216;-74
2023/08/20 08:59:18;;;;;;;6.43;2.83;;;;;;;25.92;72.12;102158.69;5027438;28;20041;-73
2023/08/20 09:01:44;;;;;;;8.90;2.95;;;;;;;25.82;71.59;102153.38;5035165;28;20088;-73
2023/08/20 09:04:09;;;;;;;8.93;3.10;;;;;;;25.92;71.46;102148.63;5033842;28;20049;-74
2023/08/20 09:06:51;;;;;;;11.65;3.30;;;;;;;26.05;71.97;102154.44;5034986;28;20044;-73
2023/08/20 09:09:18;;;;;;;7.00;2.90;;;;;;;26.11;70.55;102155.69;5032613;28;20128;-73
2023/08/20 09:11:44;;;;;;;8.88;2.97;;;;;;;26.11;69.06;102152.94;5029189;28;20033;-73
2023/08/20 09:14:29;;;;;;;11.68;2.75;;;;;;;26.23;75.09;102156.22;5028627;28;20813;-73
2023/08/20 09:17:00;;;;;;;10.48;3.10;;;;;;;26.27;72.55;102155.72;5026012;28;21077;-73
2023/08/20 09:19:34;;;;;;;11.68;3.10;;;;;;;26.13;72.68;102160.97;5028279;28;20033;-73
2023/08/20 09:22:00;;;;;;;9.55;3.22;;;;;;;26.19;71.25;102158.41;5032141;28;20041;-73
2023/08/20 09:24:32;;;;;;;11.02;3.90;;;;;;;26.42;72.01;102153.19;5031755;28;20044;-73
2023/08/20 09:27:01;;;;;;;9.18;3.10;;;;;;;26.71;73.32;102151.81;5023913;28;20030;-74
2023/08/20 09:29:26;;;;;;;11.10;3.33;;;;;;;26.51;73.13;102149.44;5027397;28;20087;-73
2023/08/20 09:32:00;;;;;;;9.75;3.53;;;;;;;26.68;71.47;102146.72;5006815;28;20038;-73
2023/08/20 09:34:26;;;;;;;10.00;3.47;;;;;;;26.57;70.85;102156.97;5029291;28;20038;-74
2023/08/20 09:36:51;;;;;;;10.23;3.22;;;;;;;26.47;70.44;102153.53;5032284;28;20086;-72
2023/08/20 09:39:17;;;;;;;10.43;3.00;;;;;;;26.55;68.76;102153.53;5028004;28;20832;-74
2023/08/20 09:41:46;;;;;;;8.43;3.20;;;;;;;26.81;72.31;102147.06;5031752;28;20798;-73
2023/08/20 09:44:15;;;;;;;11.45;3.30;;;;;;;26.76;71.03;102149.47;5040377;28;20041;-73
2023/08/20 09:46:42;;;;;;;12.18;2.85;;;;;;;26.96;70.63;102147.19;5032329;28;20123;-73
2023/08/20 09:49:12;;;;;;;7.07;2.97;;;;;;;26.71;68.67;102147.22;5025909;28;20271;-73
2023/08/20 09:51:39;;;;;;;7.82;2.75;;;;;;;26.53;67.32;102149.28;5045986;28;20034;-72
2023/08/20 09:54:22;;;;;;;9.18;2.40;;;;;;;26.57;69.35;102153.38;5027470;28;20154;-73
2023/08/20 09:56:58;;;;;;;8.45;2.72;;;;;;;26.57;65.51;102146.03;5023040;28;20059;-73
2023/08/20 09:59:24;;;;;;;7.20;2.50;;;;;;;26.66;65.53;102149.63;5022689;28;20159;-73
2023/08/20 10:01:50;;;;;;;5.53;2.25;;;;;;;26.65;64.13;102147.88;5018330;28;20045;-72
2023/08/20 10:04:18;;;;;;;11.40;2.83;;;;;;;26.64;64.55;102151.66;5025679;28;20264;-74
2023/08/20 10:06:44;;;;;;;7.53;2.45;;;;;;;26.81;66.69;102158.88;5024150;28;20065;-72
2023/08/20 10:09:09;;;;;;;5.05;1.95;;;;;;;26.81;65.20;102160.75;5034627;28;20041;-72
2023/08/20 10:11:37;;;;;;;5.72;1.80;;;;;;;26.55;61.26;102159.00;5037178;28;20077;-73
2023/08/20 10:14:03;;;;;;;4.45;2.08;;;;;;;26.91;64.11;102161.44;5033289;28;20103;-73
2023/08/20 10:16:28;;;;;;;5.28;1.55;;;;;;;26.97;64.25;102155.25;5029702;28;20843;-73
2023/08/20 10:18:59;;;;;;;5.38;1.70;;;;;;;26.94;61.49;102157.47;5032705;28;20045;-72
2023/08/20 10:21:25;;;;;;;4.18;1.73;;;;;;;27.13;60.98;102161.75;5029882;28;20037;-73
2023/08/20 10:23:50;;;;;;;5.07;1.73;;;;;;;27.10;61.59;102160.22;5044855;28;20029;-73
2023/08/20 10:26:16;;;;;;;4.60;1.67;;;;;;;27.15;62.32;102163.28;5042457;28;20068;-73
2023/08/20 10:28:42;;;;;;;4.90;1.92;;;;;;;27.12;59.73;102154.59;5026020;28;20034;-72
2023/08/20 10:31:11;;;;;;;7.60;1.33;;;;;;;26.97;57.41;102166.19;5029493;28;20037;-74
2023/08/20 10:33:39;;;;;;;1.77;0.95;;;;;;;27.05;57.84;102165.31;5060430;27;20048;-73
2023/08/20 10:36:22;;;;;;;3.88;1.42;;;;;;;27.09;57.15;102166.72;5034669;28;20037;-71
2023/08/20 10:38:49;;;;;;;3.83;1.10;;;;;;;27.06;56.75;102162.44;5029557;28;20037;-73
2023/08/20 10:41:16;;;;;;;2.95;1.05;;;;;;;27.06;56.11;102167.03;5027046;28;20025;-73
2023/08/20 10:43:49;;;;;;;2.25;1.00;;;;;;;27.10;56.09;102169.28;5029177;28;20034;-73
2023/08/20 10:46:25;;;;;;;3.20;0.90;;;;;;;27.15;55.31;102162.44;5047026;28;20052;-73
2023/08/20 10:48:58;;;;;;;3.33;1.02;;;;;;;27.01;56.01;102156.63;5025210;28;20036;-72
2023/08/20 10:51:28;;;;;;;2.53;1.08;;;;;;;27.21;56.11;102150.78;5029233;28;20087;-72
2023/08/20 10:54:14;;;;;;;2.30;0.90;;;;;;;27.14;55.67;102153.38;5026262;28;20033;-73
2023/08/20 10:56:43;;;;;;;3.78;1.27;;;;;;;27.29;55.01;102165.31;5032317;28;20156;-72
2023/08/20 10:59:13;;;;;;;2.80;1.23;;;;;;;27.19;56.17;102152.84;5025274;28;20042;-73
2023/08/20 11:01:38;;;;;;;6.90;1.60;;;;;;;27.18;54.48;102152.00;5025202;28;20145;-73
2023/08/20 11:04:07;;;;;;;4.32;1.00;;;;;;;27.50;55.21;102155.66;5033524;28;20710;-73
2023/08/20 11:06:32;;;;;;;1.65;1.00;;;;;;;27.37;53.68;102158.97;5028342;28;20048;-73
2023/08/20 11:08:58;;;;;;;3.00;1.00;;;;;;;27.44;53.35;102159.13;5026892;28;20044;-73
2023/08/20 11:11:25;;;;;;;4.55;1.23;;;;;;;27.39;54.85;102154.16;5032898;28;20034;-73